Terminal Aerodrome Forecast
Issued by NWS

Home | Current Version | Previous Version | Text Only | Print | Product List | Glossary On
Versions: 1 2 3 4 5 6 7 8 9 10 11 12 13 14 15 16 17 18 19
000
FTAK31 PAJN 231100
TAFASI
TAF
PASI 231126Z 2312/2412 VRB03KT P6SM FEW035 FEW080 SCT150
     FM231500 VRB02KT P6SM BKN100
     FM232000 03007KT P6SM SCT100
     FM240600 06004KT P6SM BKN100=

USA.gov is the U.S. government's official web portal to all federal, state and local government web resources and services.